sensor_id;sensor_type;location;lat;lon;timestamp;pressure;altitude;pressure_sealevel;temperature;humidity
63493;BME280;49638;47.526;10.028;2024-03-02T00:01:24;90525.91;;;3.76;100.00
63493;BME280;49638;47.526;10.028;2024-03-02T00:04:25;90537.28;;;3.82;100.00
63493;BME280;49638;47.526;10.028;2024-03-02T00:07:25;90530.81;;;3.85;100.00
63493;BME280;49638;47.526;10.028;2024-03-02T00:10:35;90528.41;;;3.83;100.00
63493;BME280;49638;47.526;10.028;2024-03-02T00:13:37;90528.19;;;3.85;100.00
63493;BME280;49638;47.526;10.028;2024-03-02T00:16:37;90532.38;;;3.86;100.00
63493;BME280;49638;47.526;10.028;2024-03-02T00:19:38;90524.53;;;3.86;100.00
63493;BME280;49638;47.526;10.028;2024-03-02T00:22:42;90528.41;;;3.83;100.00
63493;BME280;49638;47.526;10.028;2024-03-02T00:25:53;90521.34;;;3.84;100.00
63493;BME280;49638;47.526;10.028;2024-03-02T00:28:55;90532.25;;;3.92;100.00
63493;BME280;49638;47.526;10.028;2024-03-02T00:31:57;90522.06;;;3.79;100.00
63493;BME280;49638;47.526;10.028;2024-03-02T00:34:58;90539.84;;;3.94;100.00
63493;BME280;49638;47.526;10.028;2024-03-02T00:38:06;90533.16;;;3.98;100.00
63493;BME280;49638;47.526;10.028;2024-03-02T00:41:06;90537.91;;;4.01;100.00
63493;BME280;49638;47.526;10.028;2024-03-02T00:44:09;90532.19;;;4.04;100.00
63493;BME280;49638;47.526;10.028;2024-03-02T00:47:11;90520.09;;;3.98;100.00
63493;BME280;49638;47.526;10.028;2024-03-02T00:50:13;90523.03;;;4.01;100.00
63493;BME280;49638;47.526;10.028;2024-03-02T00:53:14;90529.59;;;4.04;100.00
63493;BME280;49638;47.526;10.028;2024-03-02T00:56:14;90537.69;;;4.02;100.00
63493;BME280;49638;47.526;10.028;2024-03-02T00:59:15;90539.72;;;4.00;100.00
63493;BME280;49638;47.526;10.028;2024-03-02T01:02:15;90537.91;;;4.01;100.00
63493;BME280;49638;47.526;10.028;2024-03-02T01:05:15;90542.13;;;4.02;100.00
63493;BME280;49638;47.526;10.028;2024-03-02T01:08:16;90536.09;;;4.01;100.00
63493;BME280;49638;47.526;10.028;2024-03-02T01:11:17;90538.94;;;4.00;100.00
63493;BME280;49638;47.526;10.028;2024-03-02T01:14:26;90541.78;;;3.98;100.00
63493;BME280;49638;47.526;10.028;2024-03-02T01:17:27;90528.84;;;3.92;100.00
63493;BME280;49638;47.526;10.028;2024-03-02T01:20:27;90541.53;;;4.00;100.00
63493;BME280;49638;47.526;10.028;2024-03-02T01:23:27;90538.94;;;4.00;100.00
63493;BME280;49638;47.526;10.028;2024-03-02T01:26:28;90530.53;;;3.98;100.00
63493;BME280;49638;47.526;10.028;2024-03-02T01:29:28;90551.66;;;4.08;100.00
63493;BME280;49638;47.526;10.028;2024-03-02T01:32:28;90539.50;;;4.02;100.00
63493;BME280;49638;47.526;10.028;2024-03-02T01:35:28;90551.19;;;4.11;100.00
63493;BME280;49638;47.526;10.028;2024-03-02T01:38:29;90556.41;;;4.11;100.00
63493;BME280;49638;47.526;10.028;2024-03-02T01:41:29;90547.53;;;4.12;100.00
63493;BME280;49638;47.526;10.028;2024-03-02T01:44:30;90552.19;;;4.10;100.00
63493;BME280;49638;47.526;10.028;2024-03-02T01:47:30;90554.81;;;4.10;100.00
63493;BME280;49638;47.526;10.028;2024-03-02T01:50:34;90561.06;;;4.09;100.00
63493;BME280;49638;47.526;10.028;2024-03-02T01:53:35;90558.91;;;4.06;100.00
63493;BME280;49638;47.526;10.028;2024-03-02T01:56:35;90551.88;;;4.07;100.00
63493;BME280;49638;47.526;10.028;2024-03-02T01:59:35;90565.97;;;4.06;100.00
63493;BME280;49638;47.526;10.028;2024-03-02T02:02:36;90548.25;;;3.96;100.00
63493;BME280;49638;47.526;10.028;2024-03-02T02:05:36;90540.34;;;3.79;100.00
63493;BME280;49638;47.526;10.028;2024-03-02T02:08:37;90566.34;;;3.86;100.00
63493;BME280;49638;47.526;10.028;2024-03-02T02:11:37;90555.81;;;3.81;100.00
63493;BME280;49638;47.526;10.028;2024-03-02T02:14:38;90536.41;;;3.65;100.00
63493;BME280;49638;47.526;10.028;2024-03-02T02:17:40;90547.41;;;3.67;100.00
63493;BME280;49638;47.526;10.028;2024-03-02T02:20:40;90545.72;;;3.72;100.00
63493;BME280;49638;47.526;10.028;2024-03-02T02:23:40;90543.34;;;3.59;100.00
63493;BME280;49638;47.526;10.028;2024-03-02T02:26:46;90543.81;;;3.56;100.00
63493;BME280;49638;47.526;10.028;2024-03-02T02:29:46;90549.69;;;3.63;100.00
63493;BME280;49638;47.526;10.028;2024-03-02T02:32:46;90540.06;;;3.64;100.00
63493;BME280;49638;47.526;10.028;2024-03-02T02:35:47;90549.34;;;3.71;100.00
63493;BME280;49638;47.526;10.028;2024-03-02T02:38:48;90535.72;;;3.69;100.00
63493;BME280;49638;47.526;10.028;2024-03-02T02:41:49;90546.63;;;3.78;100.00
63493;BME280;49638;47.526;10.028;2024-03-02T02:44:49;90534.91;;;3.81;100.00
63493;BME280;49638;47.526;10.028;2024-03-02T02:47:49;90530.22;;;3.94;100.00
63493;BME280;49638;47.526;10.028;2024-03-02T02:50:50;90524.16;;;3.94;100.00
63493;BME280;49638;47.526;10.028;2024-03-02T02:53:50;90541.00;;;3.98;100.00
63493;BME280;49638;47.526;10.028;2024-03-02T02:56:51;90523.16;;;3.95;100.00
63493;BME280;49638;47.526;10.028;2024-03-02T02:59:51;90535.75;;;3.98;100.00
63493;BME280;49638;47.526;10.028;2024-03-02T03:02:51;90548.25;;;3.96;100.00
63493;BME280;49638;47.526;10.028;2024-03-02T03:05:51;90558.38;;;3.92;100.00
63493;BME280;49638;47.526;10.028;2024-03-02T03:08:52;90557.59;;;3.92;100.00
63493;BME280;49638;47.526;10.028;2024-03-02T03:11:52;90557.94;;;3.95;100.00
63493;BME280;49638;47.526;10.028;2024-03-02T03:14:52;90554.28;;;3.96;100.00
63493;BME280;49638;47.526;10.028;2024-03-02T03:17:52;90565.06;;;4.00;100.00
63493;BME280;49638;47.526;10.028;2024-03-02T03:20:53;90564.16;;;4.06;100.00
63493;BME280;49638;47.526;10.028;2024-03-02T03:23:53;90563.69;;;4.09;100.00
63493;BME280;49638;47.526;10.028;2024-03-02T03:26:53;90569.94;;;4.08;100.00
63493;BME280;49638;47.526;10.028;2024-03-02T03:29:53;90559.03;;;4.11;100.00
63493;BME280;49638;47.526;10.028;2024-03-02T03:32:54;90566.94;;;4.16;100.00
63493;BME280;49638;47.526;10.028;2024-03-02T03:35:54;90568.78;;;4.16;100.00
63493;BME280;49638;47.526;10.028;2024-03-02T03:38:54;90574.00;;;4.16;100.00
63493;BME280;49638;47.526;10.028;2024-03-02T03:41:55;90577.09;;;4.13;100.00
63493;BME280;49638;47.526;10.028;2024-03-02T03:44:55;90577.34;;;4.11;100.00
63493;BME280;49638;47.526;10.028;2024-03-02T03:47:55;90590.50;;;4.16;100.00
63493;BME280;49638;47.526;10.028;2024-03-02T03:50:56;90579.47;;;4.14;100.00
63493;BME280;49638;47.526;10.028;2024-03-02T03:53:56;90590.63;;;4.10;100.00
63493;BME280;49638;47.526;10.028;2024-03-02T03:56:57;90584.59;;;4.09;100.00
63493;BME280;49638;47.526;10.028;2024-03-02T03:59:57;90582.00;;;4.09;100.00
63493;BME280;49638;47.526;10.028;2024-03-02T04:02:57;90595.19;;;4.02;100.00
63493;BME280;49638;47.526;10.028;2024-03-02T04:05:57;90576.44;;;3.94;100.00
63493;BME280;49638;47.526;10.028;2024-03-02T04:08:58;90559.44;;;3.79;100.00
63493;BME280;49638;47.526;10.028;2024-03-02T04:11:58;90565.78;;;3.84;100.00
63493;BME280;49638;47.526;10.028;2024-03-02T04:14:58;90578.97;;;3.89;100.00
63493;BME280;49638;47.526;10.028;2024-03-02T04:17:58;90561.50;;;3.77;100.00
63493;BME280;49638;47.526;10.028;2024-03-02T04:20:59;90568.19;;;3.73;100.00
63493;BME280;49638;47.526;10.028;2024-03-02T04:23:59;90557.19;;;3.71;100.00
63493;BME280;49638;47.526;10.028;2024-03-02T04:26:59;90574.78;;;3.76;100.00
63493;BME280;49638;47.526;10.028;2024-03-02T04:30:00;90561.28;;;3.67;100.00
63493;BME280;49638;47.526;10.028;2024-03-02T04:33:00;90581.25;;;3.73;100.00
63493;BME280;49638;47.526;10.028;2024-03-02T04:36:02;90570.47;;;3.70;100.00
63493;BME280;49638;47.526;10.028;2024-03-02T04:39:02;90573.19;;;3.75;100.00
63493;BME280;49638;47.526;10.028;2024-03-02T04:42:03;90583.63;;;3.87;100.00
63493;BME280;49638;47.526;10.028;2024-03-02T04:45:03;90581.91;;;3.92;100.00
63493;BME280;49638;47.526;10.028;2024-03-02T04:48:04;90574.66;;;3.83;100.00
63493;BME280;49638;47.526;10.028;2024-03-02T04:51:04;90579.66;;;3.84;100.00
63493;BME280;49638;47.526;10.028;2024-03-02T04:54:04;90574.00;;;3.75;100.00
63493;BME280;49638;47.526;10.028;2024-03-02T04:57:05;90578.19;;;3.76;100.00
63493;BME280;49638;47.526;10.028;2024-03-02T05:00:05;90574.56;;;3.66;100.00
63493;BME280;49638;47.526;10.028;2024-03-02T05:03:07;90565.50;;;3.68;100.00
63493;BME280;49638;47.526;10.028;2024-03-02T05:06:08;90574.56;;;3.66;100.00
63493;BME280;49638;47.526;10.028;2024-03-02T05:09:09;90578.56;;;3.68;100.00
63493;BME280;49638;47.526;10.028;2024-03-02T05:12:10;90575.94;;;3.68;100.00
63493;BME280;49638;47.526;10.028;2024-03-02T05:15:35;90586.28;;;3.75;100.00
63493;BME280;49638;47.526;10.028;2024-03-02T05:18:37;90577.31;;;3.71;100.00
63493;BME280;49638;47.526;10.028;2024-03-02T05:21:37;90573.00;;;3.65;100.00
63493;BME280;49638;47.526;10.028;2024-03-02T05:24:38;90566.66;;;3.61;100.00
63493;BME280;49638;47.526;10.028;2024-03-02T05:27:38;90580.81;;;3.53;100.00
63493;BME280;49638;47.526;10.028;2024-03-02T05:30:38;90579.81;;;3.54;100.00
63493;BME280;49638;47.526;10.028;2024-03-02T05:33:39;90570.38;;;3.53;100.00
63493;BME280;49638;47.526;10.028;2024-03-02T05:36:39;90571.53;;;3.57;100.00
63493;BME280;49638;47.526;10.028;2024-03-02T05:39:39;90567.44;;;3.61;100.00
63493;BME280;49638;47.526;10.028;2024-03-02T05:42:40;90559.34;;;3.63;100.00
63493;BME280;49638;47.526;10.028;2024-03-02T05:45:41;90572.97;;;3.76;100.00
63493;BME280;49638;47.526;10.028;2024-03-02T05:48:41;90572.03;;;3.83;100.00
63493;BME280;49638;47.526;10.028;2024-03-02T05:51:42;90576.72;;;3.81;100.00
63493;BME280;49638;47.526;10.028;2024-03-02T05:54:42;90568.06;;;3.80;100.00
63493;BME280;49638;47.526;10.028;2024-03-02T05:57:42;90565.44;;;3.80;100.00
63493;BME280;49638;47.526;10.028;2024-03-02T06:00:55;90576.72;;;3.81;100.00
63493;BME280;49638;47.526;10.028;2024-03-02T06:03:56;90578.31;;;3.82;100.00
63493;BME280;49638;47.526;10.028;2024-03-02T06:06:56;90574.31;;;3.79;100.00
63493;BME280;49638;47.526;10.028;2024-03-02T06:09:57;90579.56;;;3.79;100.00
63493;BME280;49638;47.526;10.028;2024-03-02T06:12:57;90582.41;;;3.77;100.00
63493;BME280;49638;47.526;10.028;2024-03-02T06:15:59;90562.88;;;3.68;100.00
63493;BME280;49638;47.526;10.028;2024-03-02T06:18:59;90591.59;;;3.80;100.00
63493;BME280;49638;47.526;10.028;2024-03-02T06:22:00;90588.75;;;3.82;100.00
63493;BME280;49638;47.526;10.028;2024-03-02T06:25:00;90589.22;;;3.78;100.00
63493;BME280;49638;47.526;10.028;2024-03-02T06:28:00;90585.91;;;3.83;100.00
63493;BME280;49638;47.526;10.028;2024-03-02T06:31:01;90591.00;;;3.90;100.00
63493;BME280;49638;47.526;10.028;2024-03-02T06:34:02;90574.66;;;3.83;100.00
63493;BME280;49638;47.526;10.028;2024-03-02T06:37:03;90567.94;;;3.87;100.00
63493;BME280;49638;47.526;10.028;2024-03-02T06:40:04;90573.63;;;3.95;100.00
63493;BME280;49638;47.526;10.028;2024-03-02T06:43:04;90570.22;;;3.95;100.00
63493;BME280;49638;47.526;10.028;2024-03-02T06:46:05;90588.25;;;4.08;100.00
63493;BME280;49638;47.526;10.028;2024-03-02T06:49:06;90584.34;;;4.11;100.00
63493;BME280;49638;47.526;10.028;2024-03-02T06:52:06;90585.25;;;4.16;100.00
63493;BME280;49638;47.526;10.028;2024-03-02T06:55:07;90587.28;;;4.14;100.00
63493;BME280;49638;47.526;10.028;2024-03-02T06:58:07;90583.31;;;4.23;100.00
63493;BME280;49638;47.526;10.028;2024-03-02T07:01:07;90587.03;;;4.27;100.00
63493;BME280;49638;47.526;10.028;2024-03-02T07:04:09;90580.41;;;4.37;100.00
63493;BME280;49638;47.526;10.028;2024-03-02T07:07:09;90590.28;;;4.46;100.00
63493;BME280;49638;47.526;10.028;2024-03-02T07:10:10;90585.25;;;4.45;100.00
63493;BME280;49638;47.526;10.028;2024-03-02T07:13:10;90604.44;;;4.62;100.00
63493;BME280;49638;47.526;10.028;2024-03-02T07:16:10;90610.00;;;4.66;100.00
63493;BME280;49638;47.526;10.028;2024-03-02T07:19:11;90605.56;;;4.66;100.00
63493;BME280;49638;47.526;10.028;2024-03-02T07:22:11;90606.09;;;4.68;100.00
63493;BME280;49638;47.526;10.028;2024-03-02T07:25:12;90612.00;;;4.76;100.00
63493;BME280;49638;47.526;10.028;2024-03-02T07:28:12;90607.09;;;4.79;100.00
63493;BME280;49638;47.526;10.028;2024-03-02T07:31:14;90609.47;;;4.81;100.00
63493;BME280;49638;47.526;10.028;2024-03-02T07:34:15;90613.75;;;4.87;100.00
63493;BME280;49638;47.526;10.028;2024-03-02T07:37:15;90606.22;;;4.90;100.00
63493;BME280;49638;47.526;10.028;2024-03-02T07:40:15;90589.56;;;4.80;100.00
63493;BME280;49638;47.526;10.028;2024-03-02T07:43:19;90606.16;;;5.02;100.00
63493;BME280;49638;47.526;10.028;2024-03-02T07:46:19;90605.31;;;5.13;100.00
63493;BME280;49638;47.526;10.028;2024-03-02T07:49:20;90610.69;;;5.24;100.00
63493;BME280;49638;47.526;10.028;2024-03-02T07:52:20;90613.69;;;5.32;100.00
63493;BME280;49638;47.526;10.028;2024-03-02T07:55:20;90599.59;;;5.33;100.00
63493;BME280;49638;47.526;10.028;2024-03-02T07:58:21;90596.00;;;5.39;100.00
63493;BME280;49638;47.526;10.028;2024-03-02T08:01:21;90598.94;;;5.43;100.00
63493;BME280;49638;47.526;10.028;2024-03-02T08:04:21;90603.38;;;5.59;100.00
63493;BME280;49638;47.526;10.028;2024-03-02T08:07:23;90597.00;;;5.72;100.00
63493;BME280;49638;47.526;10.028;2024-03-02T08:10:23;90597.38;;;5.81;100.00
63493;BME280;49638;47.526;10.028;2024-03-02T08:13:23;90598.00;;;5.88;100.00
63493;BME280;49638;47.526;10.028;2024-03-02T08:16:24;90608.09;;;5.96;100.00
63493;BME280;49638;47.526;10.028;2024-03-02T08:19:25;90605.06;;;6.04;100.00
63493;BME280;49638;47.526;10.028;2024-03-02T08:22:25;90597.00;;;6.11;100.00
63493;BME280;49638;47.526;10.028;2024-03-02T08:25:26;90610.81;;;6.23;99.41
63493;BME280;49638;47.526;10.028;2024-03-02T08:28:26;90576.28;;;6.09;99.04
63493;BME280;49638;47.526;10.028;2024-03-02T08:31:27;90597.81;;;6.33;98.46
63493;BME280;49638;47.526;10.028;2024-03-02T08:34:27;90596.28;;;6.37;97.85
63493;BME280;49638;47.526;10.028;2024-03-02T08:37:28;90587.06;;;6.35;97.91
63493;BME280;49638;47.526;10.028;2024-03-02T08:40:28;90579.44;;;6.33;98.22
63493;BME280;49638;47.526;10.028;2024-03-02T08:43:29;90584.44;;;6.35;98.26
63493;BME280;49638;47.526;10.028;2024-03-02T08:46:29;90581.09;;;6.39;98.81
63493;BME280;49638;47.526;10.028;2024-03-02T08:49:29;90584.34;;;6.52;98.56
63493;BME280;49638;47.526;10.028;2024-03-02T08:52:29;90587.06;;;6.57;98.65
63493;BME280;49638;47.526;10.028;2024-03-02T08:55:30;90589.97;;;6.60;99.39
63493;BME280;49638;47.526;10.028;2024-03-02T08:58:31;90581.41;;;6.70;100.00
63493;BME280;49638;47.526;10.028;2024-03-02T09:01:32;90583.09;;;6.81;100.00
63493;BME280;49638;47.526;10.028;2024-03-02T09:04:32;90586.59;;;6.92;99.62
63493;BME280;49638;47.526;10.028;2024-03-02T09:07:33;90581.44;;;7.02;99.74
63493;BME280;49638;47.526;10.028;2024-03-02T09:10:33;90562.56;;;7.05;99.23
63493;BME280;49638;47.526;10.028;2024-03-02T09:13:33;90591.91;;;7.29;98.99
63493;BME280;49638;47.526;10.028;2024-03-02T09:16:34;90588.28;;;7.35;98.64
63493;BME280;49638;47.526;10.028;2024-03-02T09:19:34;90588.38;;;7.46;98.56
63493;BME280;49638;47.526;10.028;2024-03-02T09:22:34;90567.84;;;7.43;98.68
63493;BME280;49638;47.526;10.028;2024-03-02T09:25:35;90585.88;;;7.61;98.26
63493;BME280;49638;47.526;10.028;2024-03-02T09:28:36;90581.97;;;7.69;98.00
63493;BME280;49638;47.526;10.028;2024-03-02T09:31:43;90579.91;;;7.76;97.90
63493;BME280;49638;47.526;10.028;2024-03-02T09:34:43;90572.84;;;7.81;98.12
63493;BME280;49638;47.526;10.028;2024-03-02T09:37:43;90571.56;;;7.89;98.04
63493;BME280;49638;47.526;10.028;2024-03-02T09:40:43;90567.38;;;7.93;97.90
63493;BME280;49638;47.526;10.028;2024-03-02T09:43:44;90554.78;;;7.95;98.31
63493;BME280;49638;47.526;10.028;2024-03-02T09:46:48;90551.66;;;8.03;97.86
63493;BME280;49638;47.526;10.028;2024-03-02T09:49:49;90559.56;;;8.09;98.06
63493;BME280;49638;47.526;10.028;2024-03-02T09:52:49;90540.88;;;8.05;98.06
63493;BME280;49638;47.526;10.028;2024-03-02T09:55:50;90550.94;;;8.23;98.17
63493;BME280;49638;47.526;10.028;2024-03-02T09:58:50;90542.53;;;8.32;97.55
63493;BME280;49638;47.526;10.028;2024-03-02T10:01:59;90528.88;;;8.35;97.24
63493;BME280;49638;47.526;10.028;2024-03-02T10:04:59;90528.41;;;8.48;97.20
63493;BME280;49638;47.526;10.028;2024-03-02T10:08:00;90538.22;;;8.63;96.74
63493;BME280;49638;47.526;10.028;2024-03-02T10:11:03;90535.84;;;8.71;94.97
63493;BME280;49638;47.526;10.028;2024-03-02T10:17:10;90528.25;;;8.80;94.84
63493;BME280;49638;47.526;10.028;2024-03-02T10:20:26;90526.13;;;8.87;92.50
63493;BME280;49638;47.526;10.028;2024-03-02T10:23:29;90519.28;;;8.86;92.90
63493;BME280;49638;47.526;10.028;2024-03-02T10:26:29;90502.94;;;8.84;89.77
63493;BME280;49638;47.526;10.028;2024-03-02T10:29:30;90512.44;;;8.90;90.11
63493;BME280;49638;47.526;10.028;2024-03-02T10:32:30;90500.31;;;8.84;89.31
63493;BME280;49638;47.526;10.028;2024-03-02T10:35:32;90504.53;;;8.90;89.18
63493;BME280;49638;47.526;10.028;2024-03-02T10:38:33;90498.22;;;8.91;88.63
63493;BME280;49638;47.526;10.028;2024-03-02T10:41:35;90489.25;;;8.92;88.21
63493;BME280;49638;47.526;10.028;2024-03-02T10:44:36;90478.72;;;8.87;87.96
63493;BME280;49638;47.526;10.028;2024-03-02T10:47:38;90481.34;;;8.92;86.12
63493;BME280;49638;47.526;10.028;2024-03-02T10:50:38;90472.91;;;8.95;86.12
63493;BME280;49638;47.526;10.028;2024-03-02T10:53:38;90476.09;;;8.97;84.86
63493;BME280;49638;47.526;10.028;2024-03-02T10:56:44;90472.38;;;8.98;80.23
63493;BME280;49638;47.526;10.028;2024-03-02T10:59:52;90464.75;;;9.02;81.35
63493;BME280;49638;47.526;10.028;2024-03-02T11:02:58;90454.47;;;9.06;82.20
63493;BME280;49638;47.526;10.028;2024-03-02T11:06:07;90452.09;;;9.09;80.90
63493;BME280;49638;47.526;10.028;2024-03-02T11:09:08;90442.84;;;9.17;82.01
63493;BME280;49638;47.526;10.028;2024-03-02T11:15:17;90429.41;;;9.29;77.67
63493;BME280;49638;47.526;10.028;2024-03-02T11:18:18;90413.06;;;9.21;80.85
63493;BME280;49638;47.526;10.028;2024-03-02T11:21:19;90419.09;;;9.37;80.37
63493;BME280;49638;47.526;10.028;2024-03-02T11:30:55;90401.38;;;9.53;79.31
63493;BME280;49638;47.526;10.028;2024-03-02T11:33:56;90397.16;;;9.62;78.82
63493;BME280;49638;47.526;10.028;2024-03-02T11:36:57;90402.91;;;9.69;78.38
63493;BME280;49638;47.526;10.028;2024-03-02T11:39:59;90394.72;;;9.76;78.37
63493;BME280;49638;47.526;10.028;2024-03-02T11:42:59;90392.81;;;9.87;77.84
63493;BME280;49638;47.526;10.028;2024-03-02T11:46:01;90382.50;;;9.95;77.66
63493;BME280;49638;47.526;10.028;2024-03-02T11:49:07;90375.03;;;10.08;67.83
63493;BME280;49638;47.526;10.028;2024-03-02T11:52:09;90359.19;;;10.13;77.59
63493;BME280;49638;47.526;10.028;2024-03-02T11:55:10;90355.41;;;10.24;77.38
63493;BME280;49638;47.526;10.028;2024-03-02T11:58:12;90337.47;;;10.26;77.05
63493;BME280;49638;47.526;10.028;2024-03-02T12:01:13;90345.81;;;10.38;76.79
63493;BME280;49638;47.526;10.028;2024-03-02T12:04:13;90339.75;;;10.43;76.31
63493;BME280;49638;47.526;10.028;2024-03-02T12:07:21;90321.81;;;10.40;69.39
63493;BME280;49638;47.526;10.028;2024-03-02T12:10:22;90303.81;;;10.42;75.59
63493;BME280;49638;47.526;10.028;2024-03-02T12:13:22;90332.00;;;10.52;75.55
63493;BME280;49638;47.526;10.028;2024-03-02T12:16:24;90324.53;;;10.59;75.28
63493;BME280;49638;47.526;10.028;2024-03-02T12:19:25;90334.00;;;10.65;75.18
63493;BME280;49638;47.526;10.028;2024-03-02T12:22:26;90338.75;;;10.68;74.90
63493;BME280;49638;47.526;10.028;2024-03-02T12:25:27;90325.56;;;10.63;74.17
63493;BME280;49638;47.526;10.028;2024-03-02T12:28:28;90321.56;;;10.71;73.80
63493;BME280;49638;47.526;10.028;2024-03-02T12:31:28;90317.28;;;10.75;73.06
63493;BME280;49638;47.526;10.028;2024-03-02T12:34:28;90313.88;;;10.69;72.86
63493;BME280;49638;47.526;10.028;2024-03-02T12:37:29;90314.91;;;10.73;72.94
63493;BME280;49638;47.526;10.028;2024-03-02T12:40:30;90312.56;;;10.72;72.54
63493;BME280;49638;47.526;10.028;2024-03-02T12:43:32;90315.97;;;10.72;72.76
63493;BME280;49638;47.526;10.028;2024-03-02T12:46:32;90316.50;;;10.74;72.48
63493;BME280;49638;47.526;10.028;2024-03-02T12:49:32;90299.88;;;10.74;73.03
63493;BME280;49638;47.526;10.028;2024-03-02T12:52:35;90307.47;;;10.80;72.81
63493;BME280;49638;47.526;10.028;2024-03-02T12:55:36;90311.69;;;10.81;72.56
63493;BME280;49638;47.526;10.028;2024-03-02T12:58:40;90309.03;;;10.81;71.69
63493;BME280;49638;47.526;10.028;2024-03-02T13:01:50;90298.13;;;10.88;69.27
63493;BME280;49638;47.526;10.028;2024-03-02T13:04:54;90301.00;;;10.92;71.47
63493;BME280;49638;47.526;10.028;2024-03-02T13:07:54;90289.81;;;11.00;72.48
63493;BME280;49638;47.526;10.028;2024-03-02T13:10:54;90284.25;;;11.01;72.66
63493;BME280;49638;47.526;10.028;2024-03-02T13:13:55;90290.22;;;11.12;72.37
63493;BME280;49638;47.526;10.028;2024-03-02T13:16:57;90277.53;;;11.14;72.21
63493;BME280;49638;47.526;10.028;2024-03-02T13:19:58;90269.81;;;11.18;71.96
63493;BME280;49638;47.526;10.028;2024-03-02T13:22:59;90276.03;;;11.27;72.10
63493;BME280;49638;47.526;10.028;2024-03-02T13:26:00;90278.91;;;11.30;71.98
63493;BME280;49638;47.526;10.028;2024-03-02T13:29:01;90274.66;;;11.34;72.10
63493;BME280;49638;47.526;10.028;2024-03-02T13:32:01;90257.97;;;11.34;72.11
63493;BME280;49638;47.526;10.028;2024-03-02T13:35:01;90256.97;;;11.30;71.81
63493;BME280;49638;47.526;10.028;2024-03-02T13:38:03;90260.47;;;11.25;71.67
63493;BME280;49638;47.526;10.028;2024-03-02T13:41:03;90263.81;;;11.31;71.58
63493;BME280;49638;47.526;10.028;2024-03-02T13:44:03;90261.19;;;11.31;71.60
63493;BME280;49638;47.526;10.028;2024-03-02T13:47:04;90255.66;;;11.27;71.52
63493;BME280;49638;47.526;10.028;2024-03-02T13:50:05;90259.69;;;11.25;71.58
63493;BME280;49638;47.526;10.028;2024-03-02T13:53:06;90263.94;;;11.21;71.63
63493;BME280;49638;47.526;10.028;2024-03-02T13:56:07;90258.94;;;11.19;71.58
63493;BME280;49638;47.526;10.028;2024-03-02T13:59:08;90244.72;;;11.15;71.55
63493;BME280;49638;47.526;10.028;2024-03-02T14:02:08;90250.28;;;11.13;71.69
63493;BME280;49638;47.526;10.028;2024-03-02T14:05:09;90251.91;;;11.09;72.06
63493;BME280;49638;47.526;10.028;2024-03-02T14:08:11;90244.97;;;11.13;71.82
63493;BME280;49638;47.526;10.028;2024-03-02T14:11:11;90235.78;;;11.11;71.75
63493;BME280;49638;47.526;10.028;2024-03-02T14:14:15;90235.44;;;11.18;71.58
63493;BME280;49638;47.526;10.028;2024-03-02T14:17:15;90235.38;;;11.23;71.61
63493;BME280;49638;47.526;10.028;2024-03-02T14:20:15;90234.50;;;11.27;71.56
63493;BME280;49638;47.526;10.028;2024-03-02T14:23:21;90223.59;;;11.34;71.73
63493;BME280;49638;47.526;10.028;2024-03-02T14:26:22;90209.88;;;11.32;71.67
63493;BME280;49638;47.526;10.028;2024-03-02T14:29:22;90219.53;;;11.42;71.35
63493;BME280;49638;47.526;10.028;2024-03-02T14:32:22;90227.34;;;11.52;71.57
63493;BME280;49638;47.526;10.028;2024-03-02T14:35:22;90214.69;;;11.49;71.54
63493;BME280;49638;47.526;10.028;2024-03-02T14:38:24;90218.59;;;11.51;71.36
63493;BME280;49638;47.526;10.028;2024-03-02T14:41:24;90230.06;;;11.66;71.18
63493;BME280;49638;47.526;10.028;2024-03-02T14:44:24;90225.78;;;11.70;70.93
63493;BME280;49638;47.526;10.028;2024-03-02T14:47:25;90214.31;;;11.74;71.10
63493;BME280;49638;47.526;10.028;2024-03-02T14:50:27;90212.09;;;11.81;70.82
63493;BME280;49638;47.526;10.028;2024-03-02T14:53:27;90209.97;;;11.83;70.52
63493;BME280;49638;47.526;10.028;2024-03-02T14:56:28;90211.78;;;11.88;70.51
63493;BME280;49638;47.526;10.028;2024-03-02T14:59:28;90185.09;;;11.84;70.26
63493;BME280;49638;47.526;10.028;2024-03-02T15:02:29;90186.38;;;11.87;70.43
63493;BME280;49638;47.526;10.028;2024-03-02T15:05:30;90196.50;;;11.99;70.35
63493;BME280;49638;47.526;10.028;2024-03-02T15:08:30;90193.88;;;11.99;70.33
63493;BME280;49638;47.526;10.028;2024-03-02T15:11:30;90195.47;;;12.00;70.33
63493;BME280;49638;47.526;10.028;2024-03-02T15:14:31;90188.56;;;11.99;70.04
63493;BME280;49638;47.526;10.028;2024-03-02T15:17:31;90188.81;;;12.02;70.12
63493;BME280;49638;47.526;10.028;2024-03-02T15:20:31;90180.06;;;12.02;70.00
63493;BME280;49638;47.526;10.028;2024-03-02T15:23:32;90182.22;;;12.00;70.49
63493;BME280;49638;47.526;10.028;2024-03-02T15:26:32;90181.72;;;11.98;70.91
63493;BME280;49638;47.526;10.028;2024-03-02T15:29:32;90178.66;;;11.91;71.20
63493;BME280;49638;47.526;10.028;2024-03-02T15:32:33;90179.28;;;11.82;71.72
63493;BME280;49638;47.526;10.028;2024-03-02T15:35:34;90180.69;;;11.75;72.15
63493;BME280;49638;47.526;10.028;2024-03-02T15:38:34;90180.56;;;11.66;72.38
63493;BME280;49638;47.526;10.028;2024-03-02T15:41:37;90178.84;;;11.56;72.92
63493;BME280;49638;47.526;10.028;2024-03-02T15:44:37;90181.66;;;11.46;72.22
63493;BME280;49638;47.526;10.028;2024-03-02T15:47:37;90170.97;;;11.32;72.59
63493;BME280;49638;47.526;10.028;2024-03-02T15:50:37;90183.81;;;11.20;72.33
63493;BME280;49638;47.526;10.028;2024-03-02T15:53:38;90170.25;;;11.08;72.44
63493;BME280;49638;47.526;10.028;2024-03-02T15:56:39;90174.50;;;11.04;72.16
63493;BME280;49638;47.526;10.028;2024-03-02T15:59:39;90177.00;;;10.95;72.31
63493;BME280;49638;47.526;10.028;2024-03-02T16:02:39;90168.97;;;10.81;72.03